Terminal Aerodrome Forecast
Issued by NWS

Home | Current Version | Previous Version | Graphics & Text | Print | Product List | Glossary On
Versions: 1 2 3 4 5 6 7 8 9 10 11 12 13 14 15 16 17
000
FTUS43 KGRB 270527
TAFRHI
TAF
KRHI 270527Z 2706/2806 VRB03KT P6SM SCT050 OVC100
      TEMPO 2706/2710 32012G22KT 2SM TSRA BKN040CB
     FM271000 VRB02KT 5SM -SHRA BR OVC050
     FM271400 29003KT P6SM VCSH OVC040
     FM271900 02004KT 6SM -SHRA OVC040
     FM272200 04004KT 4SM -SHRA BKN025 OVC040=

USA.gov is the U.S. government's official web portal to all federal, state and local government web resources and services.